RJTH(METAR)
05/21 17:00
RJTH 210800Z 18016G29KT 4000 RA FEW003 BKN010 21/21 Q1002 RMK
A2960=
戻る
トップページへ戻る
IMOC Co,.Ltd.